Time;durP1;ratioP1;P1;durP2;ratioP2;P2;SDS_P1;SDS_P2;PMS_P1;PMS_P2;Temp;Humidity;BMP_temperature;BMP_pressure;BME280_temperature;BME280_humidity;BME280_pressure;Samples;Min_cycle;Max_cycle;Signal;HPM_P1;HPM_P2
2023/08/28 00:01:05;;;;;;;0.50;0.50;;;17.70;51.70;;;;;;10548861;28;20221;-85
2023/08/28 00:06:26;;;;;;;0.75;0.60;;;17.70;58.00;;;;;;10548113;28;20226;-85
2023/08/28 00:11:47;;;;;;;0.52;0.52;;;17.70;33.90;;;;;;10533992;28;20201;-85
2023/08/28 00:17:08;;;;;;;0.73;0.60;;;17.70;1.00;;;;;;10562689;28;20197;-83
2023/08/28 00:22:29;;;;;;;0.50;0.50;;;17.70;1.00;;;;;;10547869;28;20190;-83
2023/08/28 00:27:50;;;;;;;0.75;0.75;;;17.70;3.90;;;;;;10562051;28;20216;-87
2023/08/28 00:33:12;;;;;;;0.70;0.70;;;17.60;1.00;;;;;;10547339;28;20199;-81
2023/08/28 00:38:33;;;;;;;1.25;1.15;;;17.50;1.00;;;;;;10546590;28;20284;-82
2023/08/28 00:43:54;;;;;;;1.10;1.00;;;17.40;1.00;;;;;;10561923;28;20244;-81
2023/08/28 00:49:15;;;;;;;2.72;1.40;;;17.40;1.00;;;;;;10547868;28;20254;-82
2023/08/28 00:54:40;;;;;;;1.67;1.48;;;17.30;1.00;;;;;;10547210;28;20200;-81
2023/08/28 01:00:05;;;;;;;1.83;1.55;;;;;;;;;;10560742;28;20273;-81
2023/08/28 01:05:35;;;;;;;1.85;1.60;;;;;;;;;;10531973;28;20233;-83
2023/08/28 01:11:10;;;;;;;1.98;1.75;;;16.90;1.00;;;;;;10546463;28;20232;-82
2023/08/28 01:16:33;;;;;;;2.35;1.55;;;16.90;1.00;;;;;;10547037;28;20197;-91
2023/08/28 01:22:10;;;;;;;2.78;1.73;;;16.90;1.00;;;;;;10561074;28;20190;-80
2023/08/28 01:27:31;;;;;;;1.80;1.70;;;16.90;1.00;;;;;;10550557;28;20401;-84
2023/08/28 01:33:12;;;;;;;2.22;1.83;;;16.90;1.00;;;;;;10554688;28;20500;-80
2023/08/28 01:38:44;;;;;;;3.97;1.55;;;16.90;1.00;;;;;;10553519;28;20248;-81
2023/08/28 01:44:08;;;;;;;2.00;1.67;;;16.80;1.00;;;;;;10582584;28;20420;-80
2023/08/28 01:49:33;;;;;;;1.73;1.45;;;;;;;;;;10567933;28;20201;-81
2023/08/28 01:54:54;;;;;;;2.45;1.85;;;16.90;1.00;;;;;;10553304;28;20277;-82
2023/08/28 02:00:16;;;;;;;1.95;1.73;;;17.00;1.00;;;;;;10567896;28;20193;-82
2023/08/28 02:05:37;;;;;;;1.88;1.38;;;16.90;1.00;;;;;;10568104;28;20222;-83
2023/08/28 02:11:00;;;;;;;2.08;1.88;;;17.00;1.00;;;;;;10538877;28;20508;-81
2023/08/28 02:16:22;;;;;;;1.60;1.50;;;17.00;1.00;;;;;;10567059;28;20198;-81
2023/08/28 02:21:43;;;;;;;4.38;1.95;;;17.00;1.00;;;;;;10537985;28;20355;-81
2023/08/28 02:27:04;;;;;;;2.65;1.80;;;17.00;1.00;;;;;;10538101;28;20233;-80
2023/08/28 02:32:26;;;;;;;4.97;1.80;;;17.00;1.00;;;;;;10551878;28;20206;-80
2023/08/28 02:37:47;;;;;;;2.75;1.70;;;16.90;1.00;;;;;;10536358;28;20381;-83
2023/08/28 02:43:09;;;;;;;1.42;1.33;;;16.80;1.00;;;;;;10551385;28;20359;-81
2023/08/28 02:48:30;;;;;;;2.30;1.80;;;16.70;1.00;;;;;;10550994;28;20228;-86
2023/08/28 02:53:52;;;;;;;2.45;1.95;;;16.60;1.00;;;;;;10565526;28;20185;-81
2023/08/28 02:59:13;;;;;;;2.65;1.60;;;16.70;1.00;;;;;;10565299;28;20263;-81
2023/08/28 03:04:34;;;;;;;2.30;1.95;;;16.80;1.00;;;;;;10536410;28;20222;-81
2023/08/28 03:09:55;;;;;;;2.20;1.58;;;16.80;1.00;;;;;;10550485;28;20225;-81
2023/08/28 03:15:16;;;;;;;2.03;1.77;;;16.70;1.00;;;;;;10550135;28;20385;-86
2023/08/28 03:20:37;;;;;;;2.53;1.67;;;16.80;1.00;;;;;;10536063;28;20201;-84
2023/08/28 03:25:59;;;;;;;3.72;1.90;;;16.70;1.00;;;;;;10523047;28;20228;-81
2023/08/28 03:31:21;;;;;;;2.28;2.08;;;16.60;1.00;;;;;;10507475;28;20209;-85
2023/08/28 03:36:42;;;;;;;2.20;2.00;;;16.60;1.00;;;;;;10538771;28;20308;-81
2023/08/28 03:42:03;;;;;;;2.28;1.85;;;16.50;1.00;;;;;;10520906;28;20222;-83
2023/08/28 03:47:25;;;;;;;2.38;2.13;;;16.50;1.00;;;;;;10506764;28;20234;-80
2023/08/28 03:52:46;;;;;;;2.55;2.28;;;16.50;1.00;;;;;;10523052;28;20210;-80
2023/08/28 03:58:08;;;;;;;2.28;1.98;;;;;;;;;;10545436;28;20204;-80
2023/08/28 04:03:29;;;;;;;3.28;2.22;;;;;;;;;;10562839;28;20214;-89
2023/08/28 04:08:52;;;;;;;4.60;2.13;;;;;;;;;;10534825;28;20437;-89
2023/08/28 04:14:13;;;;;;;2.45;2.15;;;16.40;1.00;;;;;;10548308;28;20198;-89
2023/08/28 04:19:35;;;;;;;2.42;1.90;;;16.30;1.00;;;;;;10548361;28;20201;-84
2023/08/28 04:24:59;;;;;;;1.90;1.70;;;;;;;;;;10514083;28;20222;-81
2023/08/28 04:31:25;;;;;;;2.47;1.90;;;16.00;1.00;;;;;;10434821;28;20270;-86
2023/08/28 04:36:47;;;;;;;2.72;2.10;;;16.10;1.00;;;;;;10421778;28;20234;-87
2023/08/28 04:42:09;;;;;;;2.50;2.30;;;16.10;1.00;;;;;;10431665;28;20293;-89
2023/08/28 04:47:32;;;;;;;3.72;2.30;;;16.20;1.00;;;;;;10431490;28;20553;-81
2023/08/28 04:52:53;;;;;;;5.60;2.85;;;16.20;1.00;;;;;;10420166;28;20204;-87
2023/08/28 04:58:15;;;;;;;2.65;2.05;;;16.20;1.00;;;;;;10472581;28;20206;-86
2023/08/28 05:03:38;;;;;;;3.10;2.38;;;16.20;1.00;;;;;;10546040;28;20394;-80
2023/08/28 05:08:59;;;;;;;4.45;2.40;;;16.20;1.00;;;;;;10532094;28;20228;-80
2023/08/28 05:14:20;;;;;;;5.20;2.17;;;16.20;1.00;;;;;;10545882;28;20533;-80
2023/08/28 05:19:41;;;;;;;3.42;2.60;;;16.30;1.00;;;;;;10532050;28;20229;-80
2023/08/28 05:25:02;;;;;;;3.15;2.80;;;16.30;1.00;;;;;;10560317;28;20215;-80
2023/08/28 05:30:24;;;;;;;5.25;3.03;;;16.30;1.00;;;;;;10545512;28;20206;-80
2023/08/28 05:35:45;;;;;;;2.35;2.15;;;16.30;1.00;;;;;;10559905;28;20540;-81
2023/08/28 05:41:06;;;;;;;1.95;1.80;;;16.40;1.00;;;;;;10559772;28;20206;-80
2023/08/28 05:46:28;;;;;;;3.13;2.03;;;16.50;1.00;;;;;;10545321;28;20229;-81
2023/08/28 05:51:50;;;;;;;3.15;2.20;;;16.50;1.00;;;;;;10559600;28;20198;-81
2023/08/28 05:57:12;;;;;;;6.55;2.15;;;16.60;1.00;;;;;;10544939;28;20208;-80
2023/08/28 06:02:52;;;;;;;2.40;2.20;;;16.70;1.00;;;;;;10545597;28;20192;-80
2023/08/28 06:08:40;;;;;;;3.63;2.28;;;16.80;1.00;;;;;;10549598;28;20191;-80
2023/08/28 06:14:02;;;;;;;2.25;2.05;;;17.00;1.00;;;;;;10562253;28;20193;-83
2023/08/28 06:19:23;;;;;;;2.58;2.03;;;17.20;1.00;;;;;;10566694;28;20197;-82
2023/08/28 06:24:50;;;;;;;2.03;1.70;;;17.80;51.00;;;;;;10566345;28;20222;-80
2023/08/28 06:30:11;;;;;;;4.60;1.70;;;18.60;1.00;;;;;;10552099;28;20197;-80
2023/08/28 06:35:32;;;;;;;4.05;2.03;;;19.70;1.00;;;;;;10537371;28;20230;-80
2023/08/28 06:40:54;;;;;;;4.03;1.95;;;20.10;99.90;;;;;;10566474;28;20198;-82
2023/08/28 06:46:15;;;;;;;7.05;2.55;;;20.40;1.00;;;;;;10551241;28;20226;-81
2023/08/28 06:51:36;;;;;;;3.08;2.17;;;20.00;1.00;;;;;;10565575;28;20370;-80
2023/08/28 06:56:58;;;;;;;10.32;3.58;;;19.50;1.00;;;;;;10536542;28;20199;-82
2023/08/28 07:02:20;;;;;;;3.67;3.28;;;19.00;99.90;;;;;;10536650;28;20508;-80
2023/08/28 07:07:41;;;;;;;6.72;5.28;;;18.50;1.00;;;;;;10565478;28;20224;-81
2023/08/28 07:13:02;;;;;;;5.95;4.68;;;18.10;1.00;;;;;;10550048;28;20198;-82
2023/08/28 07:18:24;;;;;;;5.40;4.28;;;17.80;1.00;;;;;;10564694;28;20265;-80
2023/08/28 07:23:45;;;;;;;5.85;5.07;;;17.80;99.90;;;;;;10535378;28;20194;-80
2023/08/28 07:29:07;;;;;;;5.25;4.68;;;18.00;54.80;;;;;;10564639;28;20265;-82
2023/08/28 07:34:32;;;;;;;5.70;3.95;;;18.10;1.00;;;;;;10564910;28;20357;-82
2023/08/28 07:39:53;;;;;;;6.45;5.85;;;18.20;99.90;;;;;;10560111;28;20257;-80
2023/08/28 07:45:14;;;;;;;8.73;5.05;;;18.80;1.00;;;;;;10563369;28;20250;-81
2023/08/28 07:50:35;;;;;;;6.25;4.75;;;19.20;1.00;;;;;;10562905;28;20361;-81
2023/08/28 07:55:57;;;;;;;5.93;4.32;;;20.40;1.00;;;;;;10534295;28;20194;-80
2023/08/28 08:01:18;;;;;;;6.90;3.63;;;21.80;99.90;;;;;;10563861;28;20232;-80
2023/08/28 08:06:39;;;;;;;3.50;3.20;;;22.30;99.90;;;;;;10563313;28;20580;-81
2023/08/28 08:12:01;;;;;;;3.92;3.00;;;22.40;1.00;;;;;;10547861;28;20270;-81
2023/08/28 08:17:22;;;;;;;3.38;3.08;;;;;;;;;;10547914;28;20204;-81
2023/08/28 08:22:46;;;;;;;4.45;2.60;;;;;;;;;;10561305;28;20190;-80
2023/08/28 08:28:07;;;;;;;3.15;2.67;;;;;;;;;;10561679;28;20229;-81
2023/08/28 08:33:28;;;;;;;5.00;2.70;;;;;;;;;;10533198;28;20195;-80
2023/08/28 08:38:49;;;;;;;3.60;2.67;;;25.10;1.00;;;;;;10531842;28;20283;-88
2023/08/28 08:44:11;;;;;;;3.17;2.63;;;;;;;;;;10546965;28;20245;-85
2023/08/28 08:49:33;;;;;;;2.75;2.13;;;26.60;1.00;;;;;;10561334;28;20485;-81
2023/08/28 08:54:59;;;;;;;4.28;2.38;;;27.20;1.00;;;;;;10560930;28;20443;-88
2023/08/28 09:00:21;;;;;;;5.05;2.17;;;27.80;1.00;;;;;;10561899;28;20208;-82
2023/08/28 09:05:43;;;;;;;2.95;2.13;;;28.20;1.00;;;;;;10546330;28;20293;-82
2023/08/28 09:11:04;;;;;;;2.08;1.73;;;28.60;1.00;;;;;;10547001;28;20187;-85
2023/08/28 09:16:26;;;;;;;3.28;2.33;;;28.90;1.00;;;;;;10562214;28;20190;-87
2023/08/28 09:21:49;;;;;;;1.90;1.60;;;28.90;99.90;;;;;;10546294;28;20260;-81
2023/08/28 09:27:13;;;;;;;3.78;1.60;;;28.80;99.90;;;;;;10546272;28;20222;-85
2023/08/28 09:32:34;;;;;;;4.53;1.48;;;28.70;99.90;;;;;;10531805;28;20199;-90
2023/08/28 09:38:00;;;;;;;1.70;1.60;;;28.60;99.90;;;;;;10545848;28;20230;-82
2023/08/28 09:43:21;;;;;;;2.50;1.80;;;28.10;99.90;;;;;;10560023;28;20493;-89
2023/08/28 09:48:43;;;;;;;1.90;1.38;;;27.70;99.90;;;;;;10564251;28;20237;-83
2023/08/28 09:54:05;;;;;;;2.58;1.30;;;28.10;99.90;;;;;;10568353;28;20183;-84
2023/08/28 09:59:27;;;;;;;2.38;1.50;;;27.30;99.90;;;;;;10553210;28;20272;-82
2023/08/28 10:04:52;;;;;;;1.88;1.45;;;26.90;99.90;;;;;;10552343;28;20301;-83
2023/08/28 10:10:16;;;;;;;3.00;1.80;;;27.60;99.90;;;;;;10552653;28;20252;-81
2023/08/28 10:15:41;;;;;;;1.92;1.15;;;28.50;99.90;;;;;;10566958;28;20198;-81
2023/08/28 10:21:02;;;;;;;1.40;1.30;;;28.80;99.90;;;;;;10567871;28;20190;-82
2023/08/28 10:26:25;;;;;;;2.78;1.52;;;29.00;99.90;;;;;;10567157;28;20218;-81
2023/08/28 10:31:47;;;;;;;2.03;1.40;;;29.20;99.90;;;;;;10551575;28;20199;-85
2023/08/28 10:37:09;;;;;;;2.08;1.30;;;29.60;99.90;;;;;;10537396;28;20257;-82
2023/08/28 10:42:38;;;;;;;4.40;1.70;;;29.60;99.90;;;;;;10509925;28;20356;-86
2023/08/28 10:47:59;;;;;;;1.23;1.10;;;29.80;99.90;;;;;;10527408;28;20217;-81
2023/08/28 10:53:22;;;;;;;1.58;1.30;;;29.70;99.90;;;;;;10565121;28;20201;-85
2023/08/28 10:58:42;;;;;;;1.10;1.00;;;29.70;99.90;;;;;;10522805;28;20206;-81
2023/08/28 11:04:16;;;;;;;1.17;1.08;;;29.60;99.90;;;;;;10525203;28;20384;-81
2023/08/28 11:09:38;;;;;;;2.15;1.65;;;29.10;99.90;;;;;;10525610;28;20223;-81
2023/08/28 11:14:59;;;;;;;4.07;1.40;;;29.10;99.90;;;;;;10522353;28;20225;-80
2023/08/28 11:20:22;;;;;;;1.20;1.10;;;29.30;99.90;;;;;;10507996;28;20203;-81
2023/08/28 11:25:43;;;;;;;1.95;1.42;;;29.00;99.90;;;;;;10523145;28;20260;-82
2023/08/28 11:31:04;;;;;;;2.40;1.10;;;28.70;99.90;;;;;;10521525;28;20400;-83
2023/08/28 11:36:26;;;;;;;1.10;0.98;;;28.30;99.90;;;;;;10550701;28;20238;-83
2023/08/28 11:41:47;;;;;;;3.17;1.40;;;28.40;99.90;;;;;;10549069;28;20195;-81
2023/08/28 11:47:08;;;;;;;2.33;1.50;;;28.70;99.90;;;;;;10548676;28;20499;-81
2023/08/28 11:52:30;;;;;;;2.00;1.30;;;28.60;99.90;;;;;;10548747;28;20221;-82
2023/08/28 11:57:52;;;;;;;1.33;1.23;;;28.70;99.90;;;;;;10563462;28;20206;-86
2023/08/28 12:03:20;;;;;;;1.30;1.20;;;29.10;99.90;;;;;;10548690;28;20194;-91
2023/08/28 12:08:44;;;;;;;0.98;0.98;;;29.20;99.90;;;;;;10548670;28;20406;-88
2023/08/28 12:14:18;;;;;;;1.75;1.10;;;29.40;99.90;;;;;;10563624;28;20189;-86
2023/08/28 12:19:39;;;;;;;2.33;1.38;;;29.70;99.90;;;;;;10563231;28;20194;-81
2023/08/28 12:25:02;;;;;;;1.55;1.25;;;28.70;99.90;;;;;;10562300;28;20233;-83
2023/08/28 12:30:23;;;;;;;1.48;1.13;;;28.50;99.90;;;;;;10547510;28;20198;-81
2023/08/28 12:35:44;;;;;;;1.70;1.10;;;28.30;99.90;;;;;;10561108;28;20246;-86
2023/08/28 12:41:05;;;;;;;0.95;0.70;;;28.20;99.90;;;;;;10562218;28;20375;-83
2023/08/28 12:46:27;;;;;;;1.52;1.08;;;28.00;99.90;;;;;;10561391;28;20267;-88
2023/08/28 12:51:49;;;;;;;2.15;0.90;;;27.50;99.90;;;;;;10546842;28;20190;-87
2023/08/28 12:57:11;;;;;;;3.42;1.23;;;26.90;99.90;;;;;;10560476;28;20477;-82
2023/08/28 13:02:32;;;;;;;3.53;1.25;;;26.80;99.90;;;;;;10546514;28;20493;-82
2023/08/28 13:18:33;;;;;;;3.05;1.10;;;27.40;99.90;;;;;;10561014;28;20195;-83
2023/08/28 13:23:55;;;;;;;1.50;0.80;;;27.30;99.90;;;;;;10551210;28;20202;-81
2023/08/28 13:29:17;;;;;;;2.35;1.05;;;27.10;99.90;;;;;;10554259;28;20222;-82
2023/08/28 13:34:38;;;;;;;1.10;1.00;;;26.90;99.90;;;;;;10568791;28;20194;-82
2023/08/28 13:39:59;;;;;;;0.90;0.90;;;26.40;99.90;;;;;;10565230;28;20297;-83
2023/08/28 13:45:20;;;;;;;2.90;0.60;;;26.30;99.90;;;;;;10553786;28;20276;-81
2023/08/28 13:50:42;;;;;;;2.42;0.98;;;26.10;99.90;;;;;;10567870;28;20220;-81
2023/08/28 13:56:04;;;;;;;0.68;0.68;;;25.70;99.90;;;;;;10553318;28;20202;-80
2023/08/28 14:01:25;;;;;;;1.02;0.80;;;25.30;99.90;;;;;;10553626;28;20278;-82
2023/08/28 14:06:46;;;;;;;3.03;1.45;;;25.20;99.90;;;;;;10567631;28;20218;-80
2023/08/28 14:12:08;;;;;;;0.80;0.80;;;25.30;99.90;;;;;;10566900;28;20493;-81
2023/08/28 14:17:29;;;;;;;1.02;0.90;;;25.20;99.90;;;;;;10566982;28;20198;-80
2023/08/28 14:22:50;;;;;;;1.77;1.40;;;25.00;99.90;;;;;;10567651;28;20213;-81
2023/08/28 14:28:12;;;;;;;0.70;0.70;;;24.80;99.90;;;;;;10552097;28;20232;-81
2023/08/28 14:33:40;;;;;;;0.80;0.80;;;24.80;99.90;;;;;;10537527;28;20190;-81
2023/08/28 14:39:03;;;;;;;0.95;0.80;;;24.90;99.90;;;;;;10566347;28;20567;-81
2023/08/28 14:44:24;;;;;;;1.88;1.00;;;24.80;99.90;;;;;;10551653;28;20376;-81
2023/08/28 14:49:45;;;;;;;0.73;0.70;;;24.60;99.90;;;;;;10565842;28;20202;-84
2023/08/28 14:55:07;;;;;;;1.08;0.77;;;24.70;99.90;;;;;;10551376;28;20546;-80
2023/08/28 15:00:28;;;;;;;2.47;1.30;;;24.70;99.90;;;;;;10565086;28;20199;-80
2023/08/28 15:05:50;;;;;;;1.75;0.95;;;24.50;99.90;;;;;;10550703;28;20222;-82
2023/08/28 15:11:11;;;;;;;1.20;0.73;;;24.30;99.90;;;;;;10565973;28;20193;-80
2023/08/28 15:16:32;;;;;;;0.73;0.70;;;24.20;99.90;;;;;;10564511;28;20194;-81
2023/08/28 15:21:53;;;;;;;2.40;0.98;;;24.10;99.90;;;;;;10549840;28;20197;-81
2023/08/28 15:27:15;;;;;;;1.33;0.80;;;24.00;99.90;;;;;;10563979;28;20650;-83
2023/08/28 15:32:36;;;;;;;0.93;0.85;;;24.00;99.90;;;;;;10549854;28;20269;-80
2023/08/28 15:37:59;;;;;;;1.58;0.88;;;23.90;99.90;;;;;;10563272;28;20267;-80
2023/08/28 15:43:20;;;;;;;1.20;0.77;;;23.80;99.90;;;;;;10563724;28;20191;-81
2023/08/28 15:48:41;;;;;;;0.80;0.70;;;23.70;99.90;;;;;;10563133;28;20254;-80
2023/08/28 15:54:47;;;;;;;2.35;0.77;;;23.50;99.90;;;;;;10563993;28;20187;-81
2023/08/28 16:06:26;;;;;;;1.13;0.73;;;23.30;99.90;;;;;;10561980;28;20280;-80
2023/08/28 16:11:54;;;;;;;2.88;1.10;;;23.10;99.90;;;;;;10548039;28;20197;-80
2023/08/28 16:17:15;;;;;;;1.23;0.95;;;23.00;99.90;;;;;;10548272;28;20194;-80
2023/08/28 16:22:36;;;;;;;1.15;0.88;;;22.90;99.90;;;;;;10561717;28;20186;-80
2023/08/28 16:27:58;;;;;;;1.65;0.90;;;22.60;99.90;;;;;;10562891;28;20297;-80
2023/08/28 16:33:19;;;;;;;1.38;0.95;;;22.70;99.90;;;;;;10561678;28;20190;-80
2023/08/28 16:38:40;;;;;;;0.80;0.80;;;22.70;99.90;;;;;;10560709;28;20249;-82
2023/08/28 16:44:02;;;;;;;0.98;0.88;;;22.60;99.90;;;;;;10561824;28;20265;-84
2023/08/28 16:49:23;;;;;;;1.65;1.10;;;22.50;99.90;;;;;;10561376;28;20391;-83
2023/08/28 16:54:45;;;;;;;1.58;1.05;;;22.40;99.90;;;;;;10533052;28;20477;-84
2023/08/28 17:00:07;;;;;;;2.45;1.08;;;22.30;99.90;;;;;;10545910;28;20198;-80
2023/08/28 17:05:30;;;;;;;1.70;1.20;;;22.20;99.90;;;;;;10531999;28;20214;-81
2023/08/28 17:10:51;;;;;;;1.88;0.90;;;22.10;99.90;;;;;;10532256;28;20273;-80
2023/08/28 17:16:13;;;;;;;1.08;0.98;;;22.00;99.90;;;;;;10560503;28;20186;-80
2023/08/28 17:21:34;;;;;;;1.48;0.95;;;21.90;99.90;;;;;;10546490;28;20194;-82
2023/08/28 17:26:56;;;;;;;1.77;1.00;;;21.80;99.90;;;;;;10546118;28;20252;-80
2023/08/28 17:32:17;;;;;;;2.55;1.42;;;21.60;99.90;;;;;;10531733;28;20222;-81
2023/08/28 17:37:38;;;;;;;1.20;1.00;;;21.40;99.90;;;;;;10545721;28;20234;-82
2023/08/28 17:43:00;;;;;;;3.38;1.63;;;21.40;99.90;;;;;;10560337;28;20247;-85
2023/08/28 17:48:21;;;;;;;1.85;1.40;;;21.30;99.90;;;;;;10559218;28;20310;-80
2023/08/28 17:53:42;;;;;;;1.30;1.10;;;21.30;99.90;;;;;;10559695;28;20210;-82
2023/08/28 17:59:04;;;;;;;1.48;0.98;;;21.20;99.90;;;;;;10545376;28;20243;-83
2023/08/28 18:04:25;;;;;;;1.27;1.00;;;21.10;99.90;;;;;;10559837;28;20252;-88
2023/08/28 18:09:46;;;;;;;2.30;1.42;;;21.10;99.90;;;;;;10549538;28;20301;-86
2023/08/28 18:15:08;;;;;;;1.13;0.93;;;21.00;99.90;;;;;;10567264;28;20198;-86
2023/08/28 18:20:29;;;;;;;3.20;1.90;;;21.00;99.90;;;;;;10552646;28;20546;-87
2023/08/28 18:25:50;;;;;;;6.72;4.15;;;20.90;99.90;;;;;;10559128;28;20253;-86
2023/08/28 18:31:12;;;;;;;6.07;4.35;;;20.80;99.90;;;;;;10541706;28;20203;-86
2023/08/28 18:36:35;;;;;;;7.20;5.07;;;20.50;99.90;;;;;;10526313;28;20222;-81
2023/08/28 18:41:56;;;;;;;8.10;5.50;;;20.50;99.90;;;;;;10525162;28;20226;-87
2023/08/28 18:47:27;;;;;;;5.28;3.40;;;20.40;1.00;;;;;;10531963;28;20264;-83
2023/08/28 18:52:49;;;;;;;4.75;2.42;;;20.40;1.00;;;;;;10511477;28;20211;-82
2023/08/28 18:58:11;;;;;;;3.22;2.15;;;20.40;1.00;;;;;;10564134;28;20194;-85
2023/08/28 19:03:32;;;;;;;4.05;2.33;;;20.30;1.00;;;;;;10551454;28;20248;-84
2023/08/28 19:08:54;;;;;;;5.13;2.30;;;20.20;1.00;;;;;;10565302;28;20218;-83
2023/08/28 19:14:15;;;;;;;3.92;2.38;;;20.10;1.00;;;;;;10565032;28;20186;-81
2023/08/28 19:19:36;;;;;;;3.35;2.45;;;20.00;1.00;;;;;;10564490;28;20238;-85
2023/08/28 19:25:03;;;;;;;2.45;2.20;;;19.80;1.00;;;;;;10565119;28;20216;-84
2023/08/28 19:30:24;;;;;;;2.63;2.42;;;19.70;1.00;;;;;;10549647;28;20229;-85
2023/08/28 19:35:46;;;;;;;4.25;2.63;;;;;;;;;;10563715;28;20240;-86
2023/08/28 19:41:07;;;;;;;3.70;2.55;;;19.10;99.90;;;;;;10564208;28;20226;-84
2023/08/28 19:46:29;;;;;;;3.83;2.78;;;19.00;1.00;;;;;;10563858;28;20221;-89
2023/08/28 19:51:50;;;;;;;5.57;3.10;;;19.00;1.00;;;;;;10563467;28;20198;-86
2023/08/28 19:57:11;;;;;;;4.97;2.90;;;19.00;1.00;;;;;;10563539;28;20221;-80
2023/08/28 20:02:32;;;;;;;4.70;3.17;;;19.00;1.00;;;;;;10563476;28;20240;-84
2023/08/28 20:07:53;;;;;;;4.70;2.33;;;18.90;1.00;;;;;;10564046;28;20406;-83
2023/08/28 20:13:14;;;;;;;4.13;2.78;;;18.70;39.20;;;;;;10548075;28;20265;-87
2023/08/28 20:18:35;;;;;;;5.57;3.63;;;18.70;99.90;;;;;;10563574;28;20547;-83
2023/08/28 20:23:56;;;;;;;5.50;3.80;;;18.60;99.90;;;;;;10548141;28;20408;-80
2023/08/28 20:29:18;;;;;;;8.65;3.58;;;18.60;99.90;;;;;;10547404;28;20226;-82
2023/08/28 20:34:39;;;;;;;5.50;2.35;;;18.60;99.90;;;;;;10532818;28;20199;-82
2023/08/28 20:40:26;;;;;;;4.13;2.65;;;18.40;99.90;;;;;;10554825;28;20556;-82
2023/08/28 20:51:08;;;;;;;3.58;2.30;;;18.20;1.00;;;;;;10576146;28;20235;-84
2023/08/28 20:56:29;;;;;;;5.93;2.95;;;18.20;1.00;;;;;;10560843;28;20198;-85
2023/08/28 21:01:50;;;;;;;4.40;2.85;;;18.10;1.00;;;;;;10561455;28;20244;-80
2023/08/28 21:07:38;;;;;;;4.82;2.95;;;18.10;1.00;;;;;;10560666;28;20293;-82
2023/08/28 21:19:28;;;;;;;3.40;2.53;;;18.00;99.90;;;;;;10561171;28;20265;-87
2023/08/28 21:25:28;;;;;;;4.25;2.63;;;18.00;1.00;;;;;;10525199;28;20194;-86
2023/08/28 21:31:01;;;;;;;4.40;2.45;;;17.90;1.00;;;;;;10518635;28;20199;-84
2023/08/28 21:36:22;;;;;;;4.00;2.28;;;17.90;64.10;;;;;;10517981;28;20206;-79
2023/08/28 21:41:43;;;;;;;2.33;1.75;;;17.80;1.00;;;;;;10559772;28;20443;-81
2023/08/28 21:47:05;;;;;;;3.25;1.83;;;17.60;1.00;;;;;;10540001;28;20251;-83
2023/08/28 21:52:45;;;;;;;3.17;1.67;;;17.50;1.00;;;;;;10526418;28;20512;-81
2023/08/28 21:58:24;;;;;;;3.72;1.80;;;17.50;14.00;;;;;;10567424;28;20515;-86
2023/08/28 22:04:04;;;;;;;3.80;1.70;;;17.50;1.00;;;;;;10567586;28;20248;-79
2023/08/28 22:09:45;;;;;;;4.20;1.98;;;17.40;99.90;;;;;;10567513;28;20221;-79
2023/08/28 22:15:20;;;;;;;3.83;1.42;;;17.40;99.90;;;;;;10540793;28;20201;-82
2023/08/28 22:20:43;;;;;;;2.05;1.60;;;17.50;1.00;;;;;;10553105;28;20213;-80
2023/08/28 22:26:04;;;;;;;5.05;1.80;;;17.60;1.00;;;;;;10524799;28;20536;-86
2023/08/28 22:31:25;;;;;;;1.70;1.38;;;17.60;1.00;;;;;;10510834;28;20203;-82
2023/08/28 22:36:47;;;;;;;1.75;1.50;;;17.60;1.00;;;;;;10541527;28;20230;-80
2023/08/28 22:42:08;;;;;;;2.20;1.65;;;17.60;99.90;;;;;;10566395;28;20527;-82
2023/08/28 22:47:32;;;;;;;3.67;1.58;;;17.50;1.00;;;;;;10551948;28;20225;-80
2023/08/28 22:52:54;;;;;;;1.90;1.50;;;17.40;1.00;;;;;;10524726;28;20355;-81
2023/08/28 22:58:15;;;;;;;2.35;1.60;;;17.30;99.90;;;;;;10548490;28;20201;-84
2023/08/28 23:03:36;;;;;;;1.45;1.25;;;17.20;1.00;;;;;;10566699;28;20189;-80
2023/08/28 23:08:58;;;;;;;2.65;1.55;;;17.30;1.00;;;;;;10536701;28;20305;-82
2023/08/28 23:14:19;;;;;;;1.50;1.33;;;17.30;1.00;;;;;;10550577;28;20282;-81
2023/08/28 23:19:40;;;;;;;2.67;1.55;;;17.40;99.90;;;;;;10550755;28;20214;-83
2023/08/28 23:25:01;;;;;;;2.05;1.65;;;17.40;99.90;;;;;;10536074;28;20194;-80
2023/08/28 23:30:23;;;;;;;1.55;0.90;;;17.30;99.90;;;;;;10549959;28;20591;-83
2023/08/28 23:35:44;;;;;;;1.45;1.13;;;17.30;1.00;;;;;;10549875;28;20215;-82
2023/08/28 23:41:06;;;;;;;1.75;1.20;;;17.30;99.90;;;;;;10535486;28;20241;-81
2023/08/28 23:46:27;;;;;;;2.30;1.13;;;17.30;99.90;;;;;;10563850;28;20261;-80
2023/08/28 23:51:48;;;;;;;0.98;0.90;;;17.40;57.10;;;;;;10564276;28;20200;-83
2023/08/28 23:57:09;;;;;;;1.35;1.08;;;17.40;1.00;;;;;;10548926;28;20198;-84
